Terminal Aerodrome Forecast
Issued by NWS Louisville, KY

Home | Current Version | Previous Version | Text Only | Print | Product List | Glossary On
Versions: 1 2 3 4 5 6 7 8 9 10 11 12 13 14 15 16 17 18 19
000
FTUS43 KLMK 172333
TAFBWG
TAF
KBWG 172333Z 1800/1824 17008KT P6SM OVC110
     FM180300 18012KT P6SM OVC070 WS020/20045KT
     FM180600 19016KT P6SM VCSH OVC040 WS020/20060KT
     FM181200 20018G25KT P6SM VCSH OVC025
     FM181600 20020G31KT 6SM -SHRA OVC012
     FM181900 24023G32KT 5SM SHRA OVC006 PROB30 1819/1823 2SM TSRA
      OVC003CB=

USA.gov is the U.S. government's official web portal to all federal, state and local government web resources and services.